createdAt,value
2023-05-20T00:01:53.727Z,4.93
2023-05-20T00:04:20.886Z,5.20
2023-05-20T00:06:47.825Z,5.35
2023-05-20T00:09:14.683Z,4.53
2023-05-20T00:11:41.444Z,5.03
2023-05-20T00:14:08.211Z,5.07
2023-05-20T00:16:35.330Z,5.03
2023-05-20T00:19:02.242Z,5.22
2023-05-20T00:21:29.941Z,5.05
2023-05-20T00:23:56.746Z,5.05
2023-05-20T00:26:23.622Z,4.93
2023-05-20T00:28:50.378Z,5.05
2023-05-20T00:31:17.214Z,5.43
2023-05-20T00:33:44.139Z,4.65
2023-05-20T00:36:10.903Z,5.00
2023-05-20T00:38:37.691Z,4.75
2023-05-20T00:41:04.548Z,5.18
2023-05-20T00:43:31.337Z,4.97
2023-05-20T00:45:58.220Z,4.85
2023-05-20T00:48:25.120Z,5.30
2023-05-20T00:50:52.190Z,5.07
2023-05-20T00:53:19.127Z,5.00
2023-05-20T00:55:46.041Z,5.68
2023-05-20T00:58:13.260Z,5.25
2023-05-20T01:00:40.605Z,5.15
2023-05-20T01:03:07.558Z,5.30
2023-05-20T01:05:34.614Z,5.60
2023-05-20T01:08:01.695Z,5.13
2023-05-20T01:10:30.451Z,4.95
2023-05-20T01:13:01.408Z,6.38
2023-05-20T01:15:29.722Z,5.25
2023-05-20T01:18:02.048Z,5.05
2023-05-20T01:20:32.776Z,5.53
2023-05-20T01:22:59.893Z,4.97
2023-05-20T01:25:27.011Z,5.72
2023-05-20T01:27:56.085Z,5.55
2023-05-20T01:30:24.230Z,5.72
2023-05-20T01:32:55.507Z,5.53
2023-05-20T01:35:23.393Z,5.78
2023-05-20T01:37:52.779Z,5.85
2023-05-20T01:40:20.027Z,5.90
2023-05-20T01:42:53.369Z,5.65
2023-05-20T01:45:20.793Z,6.13
2023-05-20T01:47:48.044Z,6.03
2023-05-20T01:50:14.852Z,5.68
2023-05-20T01:52:41.617Z,5.80
2023-05-20T01:55:09.003Z,5.45
2023-05-20T01:57:36.131Z,6.50
2023-05-20T02:00:03.301Z,5.57
2023-05-20T02:02:30.271Z,6.03
2023-05-20T02:04:57.133Z,5.70
2023-05-20T02:07:24.008Z,6.63
2023-05-20T02:09:50.948Z,6.00
2023-05-20T02:12:17.829Z,6.10
2023-05-20T02:14:47.113Z,6.40
2023-05-20T02:17:16.796Z,6.00
2023-05-20T02:19:44.781Z,5.60
2023-05-20T02:22:11.829Z,5.70
2023-05-20T02:24:38.647Z,6.68
2023-05-20T02:27:06.509Z,6.28
2023-05-20T02:29:33.382Z,6.40
2023-05-20T02:32:00.160Z,5.63
2023-05-20T02:34:28.039Z,6.07
2023-05-20T02:36:54.999Z,6.50
2023-05-20T02:39:21.764Z,5.93
2023-05-20T02:41:48.756Z,6.10
2023-05-20T02:44:15.739Z,6.15
2023-05-20T02:46:42.633Z,6.43
2023-05-20T02:49:09.438Z,6.43
2023-05-20T02:51:37.199Z,7.00
2023-05-20T02:54:04.141Z,6.53
2023-05-20T02:56:32.798Z,6.35
2023-05-20T02:59:00.441Z,6.57
2023-05-20T03:01:27.327Z,6.47
2023-05-20T03:03:54.259Z,6.95
2023-05-20T03:06:21.131Z,6.32
2023-05-20T03:08:48.148Z,6.68
2023-05-20T03:11:14.971Z,6.82
2023-05-20T03:13:41.747Z,6.50
2023-05-20T03:16:08.611Z,6.57
2023-05-20T03:18:35.952Z,6.60
2023-05-20T03:21:02.973Z,6.90
2023-05-20T03:23:29.857Z,6.57
2023-05-20T03:25:56.737Z,6.78
2023-05-20T03:28:23.492Z,6.90
2023-05-20T03:30:50.280Z,6.75
2023-05-20T03:33:17.146Z,7.13
2023-05-20T03:35:43.927Z,7.88
2023-05-20T03:38:10.777Z,7.25
2023-05-20T03:40:37.604Z,6.80
2023-05-20T03:43:04.400Z,6.90
2023-05-20T03:45:31.210Z,8.05
2023-05-20T03:47:58.144Z,7.05
2023-05-20T03:50:24.981Z,7.40
2023-05-20T03:52:51.885Z,7.40
2023-05-20T03:55:20.769Z,7.20
2023-05-20T03:57:47.555Z,6.82
2023-05-20T04:00:14.913Z,7.00
2023-05-20T04:02:41.959Z,7.97
2023-05-20T04:05:10.394Z,6.78
2023-05-20T04:07:37.338Z,7.72
2023-05-20T04:10:05.026Z,6.88
2023-05-20T04:12:32.743Z,7.30
2023-05-20T04:15:03.223Z,7.68
2023-05-20T04:17:31.008Z,7.53
2023-05-20T04:20:00.124Z,7.63
2023-05-20T04:22:27.706Z,7.13
2023-05-20T04:24:55.149Z,7.53
2023-05-20T04:27:21.937Z,6.78
2023-05-20T04:29:48.960Z,7.40
2023-05-20T04:32:21.746Z,7.63
2023-05-20T04:34:49.011Z,8.13
2023-05-20T04:37:16.616Z,7.82
2023-05-20T04:39:44.202Z,7.75
2023-05-20T04:42:11.038Z,6.90
2023-05-20T04:44:42.442Z,7.57
2023-05-20T04:47:09.356Z,7.55
2023-05-20T04:49:36.206Z,7.88
2023-05-20T04:52:02.983Z,7.18
2023-05-20T04:54:30.260Z,7.25
2023-05-20T04:56:57.378Z,7.03
2023-05-20T04:59:24.268Z,6.88
2023-05-20T05:01:51.586Z,7.65
2023-05-20T05:04:18.593Z,7.18
2023-05-20T05:06:45.452Z,7.60
2023-05-20T05:09:14.040Z,7.75
2023-05-20T05:11:40.813Z,7.75
2023-05-20T05:14:08.190Z,7.70
2023-05-20T05:16:35.168Z,8.07
2023-05-20T05:19:02.106Z,7.45
2023-05-20T05:21:28.929Z,7.55
2023-05-20T05:23:58.069Z,8.07
2023-05-20T05:26:26.764Z,7.63
2023-05-20T05:28:55.367Z,7.90
2023-05-20T05:31:22.328Z,8.48
2023-05-20T05:33:49.275Z,8.65
2023-05-20T05:36:16.910Z,8.52
2023-05-20T05:38:45.016Z,8.38
2023-05-20T05:41:11.965Z,8.38
2023-05-20T05:43:38.779Z,8.50
2023-05-20T05:46:05.690Z,8.32
2023-05-20T05:48:32.674Z,8.95
2023-05-20T05:50:59.557Z,7.70
2023-05-20T05:53:26.367Z,8.55
2023-05-20T05:55:53.129Z,8.73
2023-05-20T05:58:20.129Z,8.77
2023-05-20T06:00:46.992Z,9.48
2023-05-20T06:03:13.838Z,8.45
2023-05-20T06:05:40.877Z,8.93
2023-05-20T06:08:07.742Z,9.15
2023-05-20T06:10:34.640Z,8.50
2023-05-20T06:13:01.545Z,8.82
2023-05-20T06:15:28.453Z,9.52
2023-05-20T06:17:55.497Z,9.65
2023-05-20T06:20:22.405Z,9.70
2023-05-20T06:22:49.202Z,9.00
2023-05-20T06:25:16.151Z,8.23
2023-05-20T06:27:43.036Z,9.45
2023-05-20T06:30:10.140Z,8.80
2023-05-20T06:32:36.942Z,11.18
2023-05-20T06:35:04.000Z,9.27
2023-05-20T06:37:30.806Z,9.98
2023-05-20T06:39:57.645Z,10.13
2023-05-20T06:42:24.507Z,9.70
2023-05-20T06:44:51.270Z,9.30
2023-05-20T06:47:18.424Z,9.38
2023-05-20T06:49:47.549Z,9.80
2023-05-20T06:52:15.154Z,9.27
2023-05-20T06:54:42.224Z,8.52
2023-05-20T06:57:09.494Z,8.90
2023-05-20T06:59:37.382Z,9.88
2023-05-20T07:02:04.827Z,9.35
2023-05-20T07:04:31.730Z,9.68
2023-05-20T07:06:58.571Z,9.80
2023-05-20T07:09:25.668Z,9.63
2023-05-20T07:11:52.607Z,9.20
2023-05-20T07:14:19.842Z,10.05
2023-05-20T07:16:46.891Z,9.60
2023-05-20T07:19:15.361Z,9.85
2023-05-20T07:21:42.225Z,9.90
2023-05-20T07:24:09.122Z,9.20
2023-05-20T07:26:36.856Z,10.48
2023-05-20T07:29:06.756Z,9.70
2023-05-20T07:31:33.884Z,9.48
2023-05-20T07:34:00.675Z,9.35
2023-05-20T07:36:28.495Z,9.27
2023-05-20T07:39:03.268Z,9.32
2023-05-20T07:41:32.261Z,8.93
2023-05-20T07:43:59.117Z,9.45
2023-05-20T07:46:26.007Z,9.40
2023-05-20T07:48:53.139Z,8.35
2023-05-20T07:51:20.141Z,8.40
2023-05-20T07:53:47.397Z,9.00
2023-05-20T07:56:14.228Z,9.55
2023-05-20T07:58:43.779Z,9.73
2023-05-20T08:01:10.647Z,8.80
2023-05-20T08:03:37.570Z,9.73
2023-05-20T08:06:04.665Z,9.85
2023-05-20T08:08:31.465Z,10.10
2023-05-20T08:10:58.437Z,10.02
2023-05-20T08:13:25.365Z,10.27
2023-05-20T08:15:56.108Z,9.50
2023-05-20T08:18:23.554Z,8.70
2023-05-20T08:20:50.351Z,9.40
2023-05-20T08:23:17.350Z,9.27
2023-05-20T08:25:47.002Z,9.48
2023-05-20T08:28:13.999Z,9.13
2023-05-20T08:30:41.748Z,9.07
2023-05-20T08:33:08.927Z,9.55
2023-05-20T08:35:36.558Z,9.77
2023-05-20T08:38:03.461Z,10.23
2023-05-20T08:40:30.276Z,10.05
2023-05-20T08:42:59.228Z,9.13
2023-05-20T08:45:28.894Z,9.27
2023-05-20T08:47:56.059Z,9.13
2023-05-20T08:50:22.939Z,9.77
2023-05-20T08:52:49.846Z,8.82
2023-05-20T08:55:27.106Z,9.40
2023-05-20T08:57:55.204Z,9.27
2023-05-20T09:00:29.143Z,8.77
2023-05-20T09:02:58.720Z,9.00
2023-05-20T09:05:27.770Z,9.18
2023-05-20T09:08:05.607Z,9.25
2023-05-20T09:10:33.651Z,8.65
2023-05-20T09:13:05.081Z,8.52
2023-05-20T09:15:33.516Z,8.68
2023-05-20T09:18:05.153Z,8.88
2023-05-20T09:20:35.282Z,8.77
2023-05-20T09:23:03.304Z,9.18
2023-05-20T09:25:30.365Z,8.95
2023-05-20T09:27:57.507Z,8.27
2023-05-20T09:30:25.117Z,9.00
2023-05-20T09:32:56.749Z,8.65
2023-05-20T09:35:24.888Z,8.60
2023-05-20T09:37:56.727Z,9.40
2023-05-20T09:40:28.561Z,8.13
2023-05-20T09:43:07.644Z,9.13
2023-05-20T09:45:35.248Z,7.97
2023-05-20T09:48:03.190Z,8.05
2023-05-20T09:50:31.890Z,8.75
2023-05-20T09:53:03.977Z,8.82
2023-05-20T09:55:32.173Z,8.52
2023-05-20T09:58:02.735Z,9.40
2023-05-20T10:00:30.026Z,8.85
2023-05-20T10:02:58.031Z,8.90
2023-05-20T10:05:27.605Z,9.07
2023-05-20T10:08:09.982Z,9.02
2023-05-20T10:11:12.959Z,9.00
2023-05-20T10:14:10.241Z,8.68
2023-05-20T10:16:54.535Z,8.50
2023-05-20T10:19:32.618Z,9.57
2023-05-20T10:22:05.371Z,9.10
2023-05-20T10:24:38.312Z,8.13
2023-05-20T10:27:09.183Z,8.90
2023-05-20T10:29:52.809Z,8.63
2023-05-20T10:32:31.545Z,8.68
2023-05-20T10:35:05.534Z,8.35
2023-05-20T10:37:46.281Z,8.63
2023-05-20T10:40:18.727Z,9.20
2023-05-20T10:42:46.357Z,8.45
2023-05-20T10:45:13.233Z,9.43
2023-05-20T10:47:56.363Z,8.70
2023-05-20T10:50:40.648Z,9.50
2023-05-20T10:53:18.530Z,8.70
2023-05-20T10:55:54.998Z,9.02
2023-05-20T10:58:23.932Z,8.90
2023-05-20T11:00:57.119Z,8.82
2023-05-20T11:03:25.617Z,8.55
2023-05-20T11:05:52.667Z,8.63
2023-05-20T11:08:27.700Z,7.95
2023-05-20T11:10:58.094Z,9.05
2023-05-20T11:13:26.025Z,8.63
2023-05-20T11:15:53.360Z,8.70
2023-05-20T11:18:20.226Z,8.95
2023-05-20T11:20:47.540Z,8.25
2023-05-20T11:23:15.731Z,8.45
2023-05-20T11:25:42.880Z,8.45
2023-05-20T11:28:14.637Z,8.18
2023-05-20T11:30:43.298Z,7.72
2023-05-20T11:33:13.809Z,8.32
2023-05-20T11:35:51.064Z,8.27
2023-05-20T11:38:18.926Z,8.15
2023-05-20T11:40:50.923Z,8.30
2023-05-20T11:43:18.665Z,7.70
2023-05-20T11:45:47.393Z,7.55
2023-05-20T11:48:15.984Z,8.38
2023-05-20T11:50:44.909Z,8.13
2023-05-20T11:53:15.707Z,8.32
2023-05-20T11:55:50.674Z,8.70
2023-05-20T11:58:19.581Z,8.50
2023-05-20T12:00:51.731Z,8.73
2023-05-20T12:03:23.937Z,7.95
2023-05-20T12:05:53.983Z,7.72
2023-05-20T12:08:20.911Z,8.55
2023-05-20T12:10:47.833Z,8.98
2023-05-20T12:13:14.754Z,7.82
2023-05-20T12:15:41.599Z,8.00
2023-05-20T12:18:08.899Z,8.68
2023-05-20T12:20:37.408Z,8.00
2023-05-20T12:23:05.100Z,8.20
2023-05-20T12:25:31.985Z,8.65
2023-05-20T12:27:59.424Z,9.23
2023-05-20T12:30:26.324Z,8.60
2023-05-20T12:32:53.388Z,9.05
2023-05-20T12:35:41.557Z,8.77
2023-05-20T12:38:08.998Z,8.75
2023-05-20T12:40:38.074Z,8.00
2023-05-20T12:43:05.793Z,8.85
2023-05-20T12:45:33.636Z,7.75
2023-05-20T12:48:00.957Z,7.97
2023-05-20T12:50:28.440Z,8.80
2023-05-20T12:52:55.506Z,8.45
2023-05-20T12:55:22.580Z,8.38
2023-05-20T12:57:50.376Z,8.63
2023-05-20T13:00:18.042Z,8.25
2023-05-20T13:02:44.999Z,8.48
2023-05-20T13:05:11.928Z,8.27
2023-05-20T13:07:39.034Z,8.13
2023-05-20T13:10:07.364Z,8.35
2023-05-20T13:12:35.066Z,8.18
2023-05-20T13:15:01.980Z,8.20
2023-05-20T13:17:28.891Z,8.13
2023-05-20T13:19:55.926Z,7.97
2023-05-20T13:22:23.303Z,8.45
2023-05-20T13:24:50.238Z,8.20
2023-05-20T13:27:16.994Z,8.80
2023-05-20T13:29:43.899Z,8.05
2023-05-20T13:32:10.922Z,8.25
2023-05-20T13:34:38.968Z,8.60
2023-05-20T13:37:06.362Z,8.30
2023-05-20T13:39:33.396Z,8.60
2023-05-20T13:42:00.397Z,8.80
2023-05-20T13:44:27.172Z,8.23
2023-05-20T13:46:54.118Z,8.23
2023-05-20T13:49:21.607Z,8.73
2023-05-20T13:51:48.450Z,9.02
2023-05-20T13:54:15.551Z,9.07
2023-05-20T13:56:42.791Z,8.82
2023-05-20T13:59:09.615Z,8.63
2023-05-20T14:01:37.877Z,8.68
2023-05-20T14:04:06.707Z,8.38
2023-05-20T14:06:33.552Z,7.97
2023-05-20T14:09:00.608Z,8.13
2023-05-20T14:11:27.490Z,8.30
2023-05-20T14:13:54.392Z,8.18
2023-05-20T14:16:21.467Z,7.72
2023-05-20T14:18:48.399Z,7.97
2023-05-20T14:21:15.225Z,7.57
2023-05-20T14:23:44.683Z,8.15
2023-05-20T14:26:11.710Z,8.05
2023-05-20T14:28:38.604Z,8.23
2023-05-20T14:31:08.233Z,7.47
2023-05-20T14:33:36.438Z,7.45
2023-05-20T14:36:03.542Z,8.60
2023-05-20T14:38:30.401Z,8.00
2023-05-20T14:40:57.141Z,8.07
2023-05-20T14:43:23.955Z,7.82
2023-05-20T14:45:50.789Z,8.45
2023-05-20T14:48:17.785Z,8.18
2023-05-20T14:50:44.644Z,7.90
2023-05-20T14:53:11.404Z,8.02
2023-05-20T14:55:38.221Z,8.73
2023-05-20T14:58:05.016Z,8.68
2023-05-20T15:00:33.069Z,7.93
2023-05-20T15:03:00.271Z,7.57
2023-05-20T15:05:27.224Z,7.97
2023-05-20T15:07:54.110Z,8.45
2023-05-20T15:10:21.311Z,8.75
2023-05-20T15:12:48.336Z,8.35
2023-05-20T15:15:15.388Z,8.55
2023-05-20T15:17:42.216Z,7.90
2023-05-20T15:20:09.966Z,8.70
2023-05-20T15:22:37.157Z,8.50
2023-05-20T15:25:04.190Z,7.93
2023-05-20T15:27:31.181Z,8.48
2023-05-20T15:29:57.952Z,8.13
2023-05-20T15:32:25.053Z,8.35
2023-05-20T15:34:51.940Z,7.50
2023-05-20T15:37:18.829Z,7.68
2023-05-20T15:39:45.613Z,7.40
2023-05-20T15:42:18.546Z,6.93
2023-05-20T15:44:46.108Z,7.43
2023-05-20T15:47:13.390Z,6.97
2023-05-20T15:49:40.229Z,6.80
2023-05-20T15:52:07.282Z,7.80
2023-05-20T15:54:34.359Z,7.13
2023-05-20T15:57:02.832Z,7.15
2023-05-20T15:59:29.694Z,7.22
2023-05-20T16:01:56.537Z,7.65
2023-05-20T16:04:23.526Z,7.32
2023-05-20T16:06:51.023Z,7.28
2023-05-20T16:09:18.094Z,7.55
2023-05-20T16:11:44.884Z,8.07
2023-05-20T16:14:11.744Z,7.10
2023-05-20T16:16:38.645Z,7.05
2023-05-20T16:19:05.799Z,7.65
2023-05-20T16:21:32.649Z,7.50
2023-05-20T16:23:59.444Z,7.38
2023-05-20T16:26:26.683Z,9.30
2023-05-20T16:28:53.516Z,9.77
2023-05-20T16:31:20.370Z,9.63
2023-05-20T16:33:47.435Z,10.73
2023-05-20T16:36:14.230Z,11.10
2023-05-20T16:38:41.074Z,10.88
2023-05-20T16:41:07.909Z,10.75
2023-05-20T16:43:34.709Z,10.48
2023-05-20T16:46:01.861Z,11.10
2023-05-20T16:48:28.744Z,10.20
2023-05-20T16:50:55.914Z,12.00
2023-05-20T16:53:22.698Z,11.18
2023-05-20T16:55:49.470Z,10.73
2023-05-20T16:58:16.464Z,11.00
2023-05-20T17:00:43.306Z,10.10
2023-05-20T17:03:10.201Z,11.02
2023-05-20T17:05:37.127Z,11.60
2023-05-20T17:08:04.045Z,11.00
2023-05-20T17:10:30.864Z,11.77
2023-05-20T17:12:57.776Z,11.30
2023-05-20T17:15:25.736Z,11.77
2023-05-20T17:17:52.659Z,12.10
2023-05-20T17:20:19.810Z,11.27
2023-05-20T17:22:46.790Z,12.43
2023-05-20T17:25:13.636Z,12.10
2023-05-20T17:27:40.435Z,12.23
2023-05-20T17:30:07.939Z,12.63
2023-05-20T17:32:34.856Z,11.85
2023-05-20T17:35:02.294Z,12.43
2023-05-20T17:37:29.095Z,13.27
2023-05-20T17:39:55.927Z,12.25
2023-05-20T17:42:22.943Z,12.90
2023-05-20T17:44:49.900Z,12.52
2023-05-20T17:47:16.800Z,12.93
2023-05-20T17:49:43.833Z,12.80
2023-05-20T17:52:10.802Z,12.45
2023-05-20T17:54:37.695Z,13.35
2023-05-20T17:57:04.667Z,12.63
2023-05-20T17:59:34.049Z,12.70
2023-05-20T18:02:01.474Z,13.07
2023-05-20T18:04:28.689Z,13.45
2023-05-20T18:06:55.952Z,13.80
2023-05-20T18:09:22.878Z,13.65
2023-05-20T18:11:49.708Z,15.10
2023-05-20T18:14:18.940Z,14.05
2023-05-20T18:16:45.828Z,14.32
2023-05-20T18:19:12.622Z,13.68
2023-05-20T18:21:39.439Z,14.38
2023-05-20T18:24:06.706Z,15.68
2023-05-20T18:26:33.805Z,14.23
2023-05-20T18:29:01.008Z,14.73
2023-05-20T18:31:27.792Z,15.18
2023-05-20T18:33:54.621Z,14.85
2023-05-20T18:36:21.570Z,15.65
2023-05-20T18:38:48.500Z,15.82
2023-05-20T18:41:15.395Z,14.73
2023-05-20T18:43:42.234Z,16.48
2023-05-20T18:46:09.060Z,16.13
2023-05-20T18:48:36.139Z,17.83
2023-05-20T18:51:03.082Z,15.25
2023-05-20T18:53:29.909Z,16.38
2023-05-20T18:56:01.618Z,16.35
2023-05-20T18:58:28.938Z,15.75
2023-05-20T19:00:56.587Z,16.42
2023-05-20T19:03:25.427Z,16.02
2023-05-20T19:05:52.459Z,17.30
2023-05-20T19:08:19.315Z,16.83
2023-05-20T19:10:46.129Z,16.80
2023-05-20T19:13:13.159Z,17.95
2023-05-20T19:15:40.040Z,16.45
2023-05-20T19:18:06.927Z,16.10
2023-05-20T19:20:34.746Z,16.92
2023-05-20T19:23:01.686Z,16.50
2023-05-20T19:25:28.531Z,17.42
2023-05-20T19:27:55.441Z,16.65
2023-05-20T19:30:22.322Z,17.55
2023-05-20T19:32:49.261Z,18.40
2023-05-20T19:35:18.337Z,17.90
2023-05-20T19:37:45.713Z,17.65
2023-05-20T19:40:13.224Z,18.52
2023-05-20T19:42:40.038Z,17.50
2023-05-20T19:45:07.517Z,16.90
2023-05-20T19:47:34.607Z,17.13
2023-05-20T19:50:01.754Z,17.70
2023-05-20T19:52:28.610Z,18.10
2023-05-20T19:54:55.385Z,18.23
2023-05-20T19:57:22.196Z,17.92
2023-05-20T19:59:50.136Z,17.80
2023-05-20T20:02:17.878Z,17.48
2023-05-20T20:04:44.891Z,18.08
2023-05-20T20:07:12.258Z,17.13
2023-05-20T20:09:39.057Z,18.30
2023-05-20T20:12:06.816Z,17.42
2023-05-20T20:14:33.631Z,18.40
2023-05-20T20:17:00.624Z,17.02
2023-05-20T20:19:28.956Z,17.23
2023-05-20T20:21:59.084Z,17.77
2023-05-20T20:24:26.718Z,17.35
2023-05-20T20:26:57.128Z,17.75
2023-05-20T20:29:24.075Z,17.55
2023-05-20T20:31:50.957Z,18.15
2023-05-20T20:34:18.156Z,17.48
2023-05-20T20:36:48.099Z,17.48
2023-05-20T20:39:19.304Z,18.42
2023-05-20T20:41:47.680Z,18.95
2023-05-20T20:44:18.901Z,17.52
2023-05-20T20:46:46.270Z,19.08
2023-05-20T20:49:13.194Z,18.90
2023-05-20T20:51:40.460Z,18.50
2023-05-20T20:54:08.293Z,18.35
2023-05-20T20:56:37.317Z,17.83
2023-05-20T20:59:05.923Z,18.48
2023-05-20T21:01:36.619Z,18.33
2023-05-20T21:04:05.083Z,19.15
2023-05-20T21:06:32.192Z,18.10
2023-05-20T21:09:02.226Z,18.02
2023-05-20T21:11:29.179Z,17.30
2023-05-20T21:13:56.293Z,18.98
2023-05-20T21:16:23.488Z,19.33
2023-05-20T21:18:50.463Z,18.33
2023-05-20T21:21:20.706Z,19.23
2023-05-20T21:23:49.348Z,18.83
2023-05-20T21:26:16.499Z,18.45
2023-05-20T21:28:43.381Z,17.55
2023-05-20T21:31:10.255Z,17.88
2023-05-20T21:33:37.268Z,17.75
2023-05-20T21:36:04.701Z,18.20
2023-05-20T21:38:31.662Z,18.23
2023-05-20T21:40:58.891Z,17.60
2023-05-20T21:43:25.745Z,19.02
2023-05-20T21:45:52.673Z,18.95
2023-05-20T21:48:19.497Z,18.50
2023-05-20T21:50:46.387Z,18.13
2023-05-20T21:53:13.280Z,18.60
2023-05-20T21:55:40.114Z,18.05
2023-05-20T21:58:07.052Z,19.25
2023-05-20T22:00:33.918Z,18.73
2023-05-20T22:03:00.914Z,18.67
2023-05-20T22:05:27.712Z,19.77
2023-05-20T22:07:54.815Z,19.38
2023-05-20T22:10:23.389Z,20.75
2023-05-20T22:12:51.069Z,20.58
2023-05-20T22:15:18.019Z,20.48
2023-05-20T22:17:44.988Z,20.15
2023-05-20T22:20:12.492Z,20.27
2023-05-20T22:22:39.607Z,19.27
2023-05-20T22:25:07.556Z,20.15
2023-05-20T22:27:35.225Z,21.17
2023-05-20T22:30:02.644Z,19.35
2023-05-20T22:32:29.426Z,19.90
2023-05-20T22:34:58.546Z,21.35
2023-05-20T22:37:29.061Z,19.80
2023-05-20T22:39:56.356Z,20.58
2023-05-20T22:42:23.190Z,20.48
2023-05-20T22:44:50.169Z,19.48
2023-05-20T22:47:17.045Z,20.58
2023-05-20T22:49:43.844Z,20.13
2023-05-20T22:52:10.830Z,20.55
2023-05-20T22:54:37.675Z,20.80
2023-05-20T22:57:05.621Z,19.42
2023-05-20T22:59:32.979Z,19.52
2023-05-20T23:01:59.978Z,19.80
2023-05-20T23:04:26.804Z,20.10
2023-05-20T23:06:53.977Z,20.38
2023-05-20T23:09:21.434Z,20.48
2023-05-20T23:11:48.192Z,20.10
2023-05-20T23:14:15.101Z,19.63
2023-05-20T23:16:42.364Z,19.38
2023-05-20T23:19:09.356Z,20.13
2023-05-20T23:21:37.633Z,19.83
2023-05-20T23:24:04.981Z,20.35
2023-05-20T23:26:34.647Z,19.50
2023-05-20T23:29:01.772Z,20.58
2023-05-20T23:31:30.204Z,19.13
2023-05-20T23:33:59.905Z,20.20
2023-05-20T23:36:29.239Z,21.17
2023-05-20T23:38:56.869Z,20.65
2023-05-20T23:41:23.874Z,21.83
2023-05-20T23:43:50.691Z,20.52
2023-05-20T23:46:18.773Z,20.70
2023-05-20T23:48:48.471Z,21.73
2023-05-20T23:51:16.529Z,21.63
2023-05-20T23:53:44.254Z,20.67
2023-05-20T23:56:11.592Z,20.48
2023-05-20T23:58:38.694Z,19.67
